sensor_id;sensor_type;location;lat;lon;timestamp;temperature;humidity
37340;DHT22;23223;51.006;7.610;2023-08-21T00:01:03;19.50;99.90
37340;DHT22;23223;51.006;7.610;2023-08-21T00:03:28;19.40;99.90
37340;DHT22;23223;51.006;7.610;2023-08-21T00:05:55;19.50;99.90
37340;DHT22;23223;51.006;7.610;2023-08-21T00:08:20;19.60;99.90
37340;DHT22;23223;51.006;7.610;2023-08-21T00:10:46;19.60;99.90
37340;DHT22;23223;51.006;7.610;2023-08-21T00:13:12;19.40;99.90
37340;DHT22;23223;51.006;7.610;2023-08-21T00:15:38;19.30;99.90
37340;DHT22;23223;51.006;7.610;2023-08-21T00:18:05;19.60;99.90
37340;DHT22;23223;51.006;7.610;2023-08-21T00:20:30;20.00;99.90
37340;DHT22;23223;51.006;7.610;2023-08-21T00:22:56;20.20;99.90
37340;DHT22;23223;51.006;7.610;2023-08-21T00:25:22;20.00;99.90
37340;DHT22;23223;51.006;7.610;2023-08-21T00:27:48;19.60;99.90
37340;DHT22;23223;51.006;7.610;2023-08-21T00:30:14;19.40;99.90
37340;DHT22;23223;51.006;7.610;2023-08-21T00:32:43;19.10;99.90
37340;DHT22;23223;51.006;7.610;2023-08-21T00:35:08;19.00;99.90
37340;DHT22;23223;51.006;7.610;2023-08-21T00:37:34;18.90;99.90
37340;DHT22;23223;51.006;7.610;2023-08-21T00:39:59;19.00;99.90
37340;DHT22;23223;51.006;7.610;2023-08-21T00:42:25;18.90;99.90
37340;DHT22;23223;51.006;7.610;2023-08-21T00:44:51;18.80;99.90
37340;DHT22;23223;51.006;7.610;2023-08-21T00:47:16;18.90;99.90
37340;DHT22;23223;51.006;7.610;2023-08-21T00:49:42;19.10;99.90
37340;DHT22;23223;51.006;7.610;2023-08-21T00:52:11;19.20;99.90
37340;DHT22;23223;51.006;7.610;2023-08-21T00:54:37;19.10;99.90
37340;DHT22;23223;51.006;7.610;2023-08-21T00:57:03;19.00;99.90
37340;DHT22;23223;51.006;7.610;2023-08-21T00:59:30;19.00;99.90
37340;DHT22;23223;51.006;7.610;2023-08-21T01:01:55;19.10;99.90
37340;DHT22;23223;51.006;7.610;2023-08-21T01:04:21;19.00;99.90
37340;DHT22;23223;51.006;7.610;2023-08-21T01:06:49;18.90;99.90
37340;DHT22;23223;51.006;7.610;2023-08-21T01:09:26;18.80;99.90
37340;DHT22;23223;51.006;7.610;2023-08-21T01:12:02;18.90;99.90
37340;DHT22;23223;51.006;7.610;2023-08-21T01:14:41;19.00;99.90
37340;DHT22;23223;51.006;7.610;2023-08-21T01:17:09;19.30;99.90
37340;DHT22;23223;51.006;7.610;2023-08-21T01:19:41;19.30;99.90
37340;DHT22;23223;51.006;7.610;2023-08-21T01:22:09;19.10;99.90
37340;DHT22;23223;51.006;7.610;2023-08-21T01:24:34;18.90;99.90
37340;DHT22;23223;51.006;7.610;2023-08-21T01:27:00;18.90;99.90
37340;DHT22;23223;51.006;7.610;2023-08-21T01:29:26;18.80;99.90
37340;DHT22;23223;51.006;7.610;2023-08-21T01:32:02;18.80;99.90
37340;DHT22;23223;51.006;7.610;2023-08-21T01:34:32;19.00;99.90
37340;DHT22;23223;51.006;7.610;2023-08-21T01:37:02;19.40;99.90
37340;DHT22;23223;51.006;7.610;2023-08-21T01:39:28;19.70;99.90
37340;DHT22;23223;51.006;7.610;2023-08-21T01:41:54;19.80;99.90
37340;DHT22;23223;51.006;7.610;2023-08-21T01:44:21;19.60;99.90
37340;DHT22;23223;51.006;7.610;2023-08-21T01:46:47;19.40;99.90
37340;DHT22;23223;51.006;7.610;2023-08-21T01:49:12;19.30;99.90
37340;DHT22;23223;51.006;7.610;2023-08-21T01:51:38;19.40;99.90
37340;DHT22;23223;51.006;7.610;2023-08-21T01:54:03;19.40;99.90
37340;DHT22;23223;51.006;7.610;2023-08-21T01:56:29;19.20;99.90
37340;DHT22;23223;51.006;7.610;2023-08-21T01:58:54;19.20;99.90
37340;DHT22;23223;51.006;7.610;2023-08-21T02:01:20;19.20;99.90
37340;DHT22;23223;51.006;7.610;2023-08-21T02:03:46;19.20;99.90
37340;DHT22;23223;51.006;7.610;2023-08-21T02:06:11;19.10;99.90
37340;DHT22;23223;51.006;7.610;2023-08-21T02:08:37;19.00;99.90
37340;DHT22;23223;51.006;7.610;2023-08-21T02:11:03;19.10;99.90
37340;DHT22;23223;51.006;7.610;2023-08-21T02:13:28;19.10;99.90
37340;DHT22;23223;51.006;7.610;2023-08-21T02:15:54;18.90;99.90
37340;DHT22;23223;51.006;7.610;2023-08-21T02:18:20;18.70;99.90
37340;DHT22;23223;51.006;7.610;2023-08-21T02:20:47;18.60;99.90
37340;DHT22;23223;51.006;7.610;2023-08-21T02:23:12;18.70;99.90
37340;DHT22;23223;51.006;7.610;2023-08-21T02:25:38;18.60;99.90
37340;DHT22;23223;51.006;7.610;2023-08-21T02:28:04;18.30;99.90
37340;DHT22;23223;51.006;7.610;2023-08-21T02:30:29;18.10;99.90
37340;DHT22;23223;51.006;7.610;2023-08-21T02:32:55;18.00;99.90
37340;DHT22;23223;51.006;7.610;2023-08-21T02:35:21;18.00;99.90
37340;DHT22;23223;51.006;7.610;2023-08-21T02:37:46;18.10;99.90
37340;DHT22;23223;51.006;7.610;2023-08-21T02:40:12;18.10;99.90
37340;DHT22;23223;51.006;7.610;2023-08-21T02:42:38;18.20;99.90
37340;DHT22;23223;51.006;7.610;2023-08-21T02:45:03;18.30;99.90
37340;DHT22;23223;51.006;7.610;2023-08-21T02:47:43;18.20;99.90
37340;DHT22;23223;51.006;7.610;2023-08-21T02:50:10;18.10;99.90
37340;DHT22;23223;51.006;7.610;2023-08-21T02:52:36;18.20;99.90
37340;DHT22;23223;51.006;7.610;2023-08-21T02:55:03;18.30;99.90
37340;DHT22;23223;51.006;7.610;2023-08-21T02:57:29;18.30;99.90
37340;DHT22;23223;51.006;7.610;2023-08-21T02:59:55;18.10;99.90
37340;DHT22;23223;51.006;7.610;2023-08-21T03:02:21;18.00;99.90
37340;DHT22;23223;51.006;7.610;2023-08-21T03:04:47;18.10;99.90
37340;DHT22;23223;51.006;7.610;2023-08-21T03:07:13;18.30;99.90
37340;DHT22;23223;51.006;7.610;2023-08-21T03:09:39;18.70;99.90
37340;DHT22;23223;51.006;7.610;2023-08-21T03:12:05;18.60;99.90
37340;DHT22;23223;51.006;7.610;2023-08-21T03:14:31;18.60;99.90
37340;DHT22;23223;51.006;7.610;2023-08-21T03:16:57;18.40;99.90
37340;DHT22;23223;51.006;7.610;2023-08-21T03:19:22;18.20;99.90
37340;DHT22;23223;51.006;7.610;2023-08-21T03:21:48;18.00;99.90
37340;DHT22;23223;51.006;7.610;2023-08-21T03:24:14;18.00;99.90
37340;DHT22;23223;51.006;7.610;2023-08-21T03:26:39;18.30;99.90
37340;DHT22;23223;51.006;7.610;2023-08-21T03:29:05;18.70;99.90
37340;DHT22;23223;51.006;7.610;2023-08-21T03:31:31;19.10;99.90
37340;DHT22;23223;51.006;7.610;2023-08-21T03:33:57;19.20;99.90
37340;DHT22;23223;51.006;7.610;2023-08-21T03:36:23;19.00;99.90
37340;DHT22;23223;51.006;7.610;2023-08-21T03:38:59;18.80;99.90
37340;DHT22;23223;51.006;7.610;2023-08-21T03:41:25;18.60;99.90
37340;DHT22;23223;51.006;7.610;2023-08-21T03:43:51;18.60;99.90
37340;DHT22;23223;51.006;7.610;2023-08-21T03:46:16;18.50;99.90
37340;DHT22;23223;51.006;7.610;2023-08-21T03:48:42;18.40;99.90
37340;DHT22;23223;51.006;7.610;2023-08-21T03:51:07;18.30;99.90
37340;DHT22;23223;51.006;7.610;2023-08-21T03:53:33;18.40;99.90
37340;DHT22;23223;51.006;7.610;2023-08-21T03:55:59;18.90;99.90
37340;DHT22;23223;51.006;7.610;2023-08-21T03:58:24;19.10;99.90
37340;DHT22;23223;51.006;7.610;2023-08-21T04:00:53;19.10;99.90
37340;DHT22;23223;51.006;7.610;2023-08-21T04:03:19;19.20;99.90
37340;DHT22;23223;51.006;7.610;2023-08-21T04:05:45;19.30;99.90
37340;DHT22;23223;51.006;7.610;2023-08-21T04:08:11;19.30;99.90
37340;DHT22;23223;51.006;7.610;2023-08-21T04:10:36;19.50;99.90
37340;DHT22;23223;51.006;7.610;2023-08-21T04:13:04;19.50;99.90
37340;DHT22;23223;51.006;7.610;2023-08-21T04:15:30;19.30;99.90
37340;DHT22;23223;51.006;7.610;2023-08-21T04:17:56;19.10;99.90
37340;DHT22;23223;51.006;7.610;2023-08-21T04:20:22;18.80;99.90
37340;DHT22;23223;51.006;7.610;2023-08-21T04:22:48;18.60;99.90
37340;DHT22;23223;51.006;7.610;2023-08-21T04:25:14;18.40;99.90
37340;DHT22;23223;51.006;7.610;2023-08-21T04:27:40;18.10;99.90
37340;DHT22;23223;51.006;7.610;2023-08-21T04:30:06;17.80;99.90
37340;DHT22;23223;51.006;7.610;2023-08-21T04:32:32;17.60;99.90
37340;DHT22;23223;51.006;7.610;2023-08-21T04:34:57;17.50;99.90
37340;DHT22;23223;51.006;7.610;2023-08-21T04:37:23;17.50;99.90
37340;DHT22;23223;51.006;7.610;2023-08-21T04:39:53;17.40;99.90
37340;DHT22;23223;51.006;7.610;2023-08-21T04:42:18;17.50;99.90
37340;DHT22;23223;51.006;7.610;2023-08-21T04:44:44;17.70;99.90
37340;DHT22;23223;51.006;7.610;2023-08-21T04:47:21;18.00;99.90
37340;DHT22;23223;51.006;7.610;2023-08-21T04:49:50;18.20;99.90
37340;DHT22;23223;51.006;7.610;2023-08-21T04:52:16;18.10;99.90
37340;DHT22;23223;51.006;7.610;2023-08-21T04:54:42;17.80;99.90
37340;DHT22;23223;51.006;7.610;2023-08-21T04:57:08;17.80;99.90
37340;DHT22;23223;51.006;7.610;2023-08-21T04:59:34;17.90;99.90
37340;DHT22;23223;51.006;7.610;2023-08-21T05:02:00;17.90;99.90
37340;DHT22;23223;51.006;7.610;2023-08-21T05:04:25;17.90;99.90
37340;DHT22;23223;51.006;7.610;2023-08-21T05:06:51;17.80;99.90
37340;DHT22;23223;51.006;7.610;2023-08-21T05:09:16;17.80;99.90
37340;DHT22;23223;51.006;7.610;2023-08-21T05:11:42;17.80;99.90
37340;DHT22;23223;51.006;7.610;2023-08-21T05:14:08;17.70;99.90
37340;DHT22;23223;51.006;7.610;2023-08-21T05:16:33;17.70;99.90
37340;DHT22;23223;51.006;7.610;2023-08-21T05:18:59;17.70;99.90
37340;DHT22;23223;51.006;7.610;2023-08-21T05:21:25;17.70;99.90
37340;DHT22;23223;51.006;7.610;2023-08-21T05:23:50;17.70;99.90
37340;DHT22;23223;51.006;7.610;2023-08-21T05:26:16;17.60;99.90
37340;DHT22;23223;51.006;7.610;2023-08-21T05:28:42;17.50;99.90
37340;DHT22;23223;51.006;7.610;2023-08-21T05:31:07;17.60;99.90
37340;DHT22;23223;51.006;7.610;2023-08-21T05:33:33;17.70;99.90
37340;DHT22;23223;51.006;7.610;2023-08-21T05:35:59;17.80;99.90
37340;DHT22;23223;51.006;7.610;2023-08-21T05:38:24;17.80;99.90
37340;DHT22;23223;51.006;7.610;2023-08-21T05:40:50;17.70;99.90
37340;DHT22;23223;51.006;7.610;2023-08-21T05:43:19;17.70;99.90
37340;DHT22;23223;51.006;7.610;2023-08-21T05:45:44;17.80;99.90
37340;DHT22;23223;51.006;7.610;2023-08-21T05:48:10;17.80;99.90
37340;DHT22;23223;51.006;7.610;2023-08-21T05:50:36;17.90;99.90
37340;DHT22;23223;51.006;7.610;2023-08-21T05:53:05;18.00;99.90
37340;DHT22;23223;51.006;7.610;2023-08-21T05:55:32;18.20;99.90
37340;DHT22;23223;51.006;7.610;2023-08-21T05:57:57;18.50;99.90
37340;DHT22;23223;51.006;7.610;2023-08-21T06:00:23;18.80;99.90
37340;DHT22;23223;51.006;7.610;2023-08-21T06:02:49;19.00;99.90
37340;DHT22;23223;51.006;7.610;2023-08-21T06:05:15;19.40;99.90
37340;DHT22;23223;51.006;7.610;2023-08-21T06:07:41;19.60;99.90
37340;DHT22;23223;51.006;7.610;2023-08-21T06:10:10;19.70;99.90
37340;DHT22;23223;51.006;7.610;2023-08-21T06:12:40;19.90;99.90
37340;DHT22;23223;51.006;7.610;2023-08-21T06:15:07;20.10;99.90
37340;DHT22;23223;51.006;7.610;2023-08-21T06:17:38;20.30;99.90
37340;DHT22;23223;51.006;7.610;2023-08-21T06:20:05;20.60;99.90
37340;DHT22;23223;51.006;7.610;2023-08-21T06:22:32;20.90;99.90
37340;DHT22;23223;51.006;7.610;2023-08-21T06:24:58;21.20;99.90
37340;DHT22;23223;51.006;7.610;2023-08-21T06:27:23;21.50;99.90
37340;DHT22;23223;51.006;7.610;2023-08-21T06:29:49;21.90;99.90
37340;DHT22;23223;51.006;7.610;2023-08-21T06:32:14;22.70;99.90
37340;DHT22;23223;51.006;7.610;2023-08-21T06:34:40;23.40;99.90
37340;DHT22;23223;51.006;7.610;2023-08-21T06:37:06;23.70;99.90
37340;DHT22;23223;51.006;7.610;2023-08-21T06:39:31;24.00;99.90
37340;DHT22;23223;51.006;7.610;2023-08-21T06:41:57;24.50;99.90
37340;DHT22;23223;51.006;7.610;2023-08-21T06:44:23;24.80;99.90
37340;DHT22;23223;51.006;7.610;2023-08-21T06:46:48;25.30;99.90
37340;DHT22;23223;51.006;7.610;2023-08-21T06:49:14;25.60;99.90
37340;DHT22;23223;51.006;7.610;2023-08-21T06:51:39;25.70;99.90
37340;DHT22;23223;51.006;7.610;2023-08-21T06:54:05;26.00;99.90
37340;DHT22;23223;51.006;7.610;2023-08-21T06:56:31;26.20;99.90
37340;DHT22;23223;51.006;7.610;2023-08-21T06:58:57;26.60;99.90
37340;DHT22;23223;51.006;7.610;2023-08-21T07:01:22;27.10;99.90
37340;DHT22;23223;51.006;7.610;2023-08-21T07:03:48;27.30;99.90
37340;DHT22;23223;51.006;7.610;2023-08-21T07:06:14;27.50;99.90
37340;DHT22;23223;51.006;7.610;2023-08-21T07:08:39;27.50;99.90
37340;DHT22;23223;51.006;7.610;2023-08-21T07:11:06;27.80;99.90
37340;DHT22;23223;51.006;7.610;2023-08-21T07:13:34;28.00;99.90
37340;DHT22;23223;51.006;7.610;2023-08-21T07:15:59;28.50;99.90
37340;DHT22;23223;51.006;7.610;2023-08-21T07:18:32;28.90;99.90
37340;DHT22;23223;51.006;7.610;2023-08-21T07:20:57;28.80;99.90
37340;DHT22;23223;51.006;7.610;2023-08-21T07:23:23;29.20;99.90
37340;DHT22;23223;51.006;7.610;2023-08-21T07:25:49;29.30;99.90
37340;DHT22;23223;51.006;7.610;2023-08-21T07:28:14;29.40;99.90
37340;DHT22;23223;51.006;7.610;2023-08-21T07:30:40;29.60;99.90
37340;DHT22;23223;51.006;7.610;2023-08-21T07:33:06;30.20;99.90
37340;DHT22;23223;51.006;7.610;2023-08-21T07:35:32;30.40;99.90
37340;DHT22;23223;51.006;7.610;2023-08-21T07:37:58;30.20;99.90
37340;DHT22;23223;51.006;7.610;2023-08-21T07:40:24;30.10;99.90
37340;DHT22;23223;51.006;7.610;2023-08-21T07:42:50;30.10;99.90
37340;DHT22;23223;51.006;7.610;2023-08-21T07:45:16;30.30;99.90
37340;DHT22;23223;51.006;7.610;2023-08-21T07:47:42;30.70;99.90
37340;DHT22;23223;51.006;7.610;2023-08-21T07:50:08;30.90;99.90
37340;DHT22;23223;51.006;7.610;2023-08-21T07:52:35;31.30;99.90
37340;DHT22;23223;51.006;7.610;2023-08-21T07:55:01;31.50;99.90
37340;DHT22;23223;51.006;7.610;2023-08-21T07:57:27;31.50;99.90
37340;DHT22;23223;51.006;7.610;2023-08-21T07:59:53;31.90;99.90
37340;DHT22;23223;51.006;7.610;2023-08-21T08:02:19;31.90;99.90
37340;DHT22;23223;51.006;7.610;2023-08-21T08:04:45;32.10;99.90
37340;DHT22;23223;51.006;7.610;2023-08-21T08:07:11;32.20;99.90
37340;DHT22;23223;51.006;7.610;2023-08-21T08:09:37;31.90;99.90
37340;DHT22;23223;51.006;7.610;2023-08-21T08:12:03;32.00;99.90
37340;DHT22;23223;51.006;7.610;2023-08-21T08:14:29;32.30;99.90
37340;DHT22;23223;51.006;7.610;2023-08-21T08:16:55;32.10;99.90
37340;DHT22;23223;51.006;7.610;2023-08-21T08:19:20;32.20;99.90
37340;DHT22;23223;51.006;7.610;2023-08-21T08:21:46;32.20;99.90
37340;DHT22;23223;51.006;7.610;2023-08-21T08:24:11;32.30;99.90
37340;DHT22;23223;51.006;7.610;2023-08-21T08:26:37;32.50;99.90
37340;DHT22;23223;51.006;7.610;2023-08-21T08:29:03;32.60;99.90
37340;DHT22;23223;51.006;7.610;2023-08-21T08:31:30;32.60;99.90
37340;DHT22;23223;51.006;7.610;2023-08-21T08:33:56;32.70;99.90
37340;DHT22;23223;51.006;7.610;2023-08-21T08:36:23;33.10;99.90
37340;DHT22;23223;51.006;7.610;2023-08-21T08:38:48;33.70;99.90
37340;DHT22;23223;51.006;7.610;2023-08-21T08:41:54;33.40;99.90
37340;DHT22;23223;51.006;7.610;2023-08-21T08:44:12;33.30;99.90
37340;DHT22;23223;51.006;7.610;2023-08-21T08:46:40;33.50;99.90
37340;DHT22;23223;51.006;7.610;2023-08-21T08:49:05;33.40;99.90
37340;DHT22;23223;51.006;7.610;2023-08-21T08:51:34;33.50;99.90
37340;DHT22;23223;51.006;7.610;2023-08-21T08:54:03;33.80;99.90
37340;DHT22;23223;51.006;7.610;2023-08-21T08:56:29;33.80;99.90
37340;DHT22;23223;51.006;7.610;2023-08-21T08:58:54;34.00;99.90
37340;DHT22;23223;51.006;7.610;2023-08-21T09:01:20;34.30;99.90
37340;DHT22;23223;51.006;7.610;2023-08-21T09:03:46;33.90;99.90
37340;DHT22;23223;51.006;7.610;2023-08-21T09:06:12;34.40;99.90
37340;DHT22;23223;51.006;7.610;2023-08-21T09:08:37;34.50;99.90
37340;DHT22;23223;51.006;7.610;2023-08-21T09:11:03;34.50;99.90
37340;DHT22;23223;51.006;7.610;2023-08-21T09:13:31;34.60;99.90
37340;DHT22;23223;51.006;7.610;2023-08-21T09:15:56;34.40;99.90
37340;DHT22;23223;51.006;7.610;2023-08-21T09:18:23;34.60;99.90
37340;DHT22;23223;51.006;7.610;2023-08-21T09:20:49;34.70;99.90
37340;DHT22;23223;51.006;7.610;2023-08-21T09:23:16;34.70;99.90
37340;DHT22;23223;51.006;7.610;2023-08-21T09:25:44;34.60;99.90
37340;DHT22;23223;51.006;7.610;2023-08-21T09:28:12;34.50;99.90
37340;DHT22;23223;51.006;7.610;2023-08-21T09:30:51;34.50;99.90
37340;DHT22;23223;51.006;7.610;2023-08-21T09:33:18;34.60;99.90
37340;DHT22;23223;51.006;7.610;2023-08-21T09:35:45;34.90;99.90
37340;DHT22;23223;51.006;7.610;2023-08-21T09:38:11;34.90;99.90
37340;DHT22;23223;51.006;7.610;2023-08-21T09:40:50;34.70;99.90
37340;DHT22;23223;51.006;7.610;2023-08-21T09:43:19;35.00;99.90
37340;DHT22;23223;51.006;7.610;2023-08-21T09:45:50;35.20;99.90
37340;DHT22;23223;51.006;7.610;2023-08-21T09:48:23;35.00;99.90
37340;DHT22;23223;51.006;7.610;2023-08-21T09:50:51;34.90;99.90
37340;DHT22;23223;51.006;7.610;2023-08-21T09:53:17;34.90;99.90
37340;DHT22;23223;51.006;7.610;2023-08-21T09:55:43;34.90;99.90
37340;DHT22;23223;51.006;7.610;2023-08-21T09:58:09;34.80;99.90
37340;DHT22;23223;51.006;7.610;2023-08-21T10:00:36;34.90;99.90
37340;DHT22;23223;51.006;7.610;2023-08-21T10:03:07;35.30;99.90
37340;DHT22;23223;51.006;7.610;2023-08-21T10:05:38;35.70;99.90
37340;DHT22;23223;51.006;7.610;2023-08-21T10:08:06;35.40;99.90
37340;DHT22;23223;51.006;7.610;2023-08-21T10:10:34;35.80;99.90
37340;DHT22;23223;51.006;7.610;2023-08-21T10:13:00;35.90;99.90
37340;DHT22;23223;51.006;7.610;2023-08-21T10:15:31;35.60;99.80
37340;DHT22;23223;51.006;7.610;2023-08-21T10:17:58;35.00;99.90
37340;DHT22;23223;51.006;7.610;2023-08-21T10:20:25;34.30;99.90
37340;DHT22;23223;51.006;7.610;2023-08-21T10:22:55;33.90;99.90
37340;DHT22;23223;51.006;7.610;2023-08-21T10:25:24;33.50;99.90
37340;DHT22;23223;51.006;7.610;2023-08-21T10:27:55;33.20;99.90
37340;DHT22;23223;51.006;7.610;2023-08-21T10:30:23;33.40;99.90
37340;DHT22;23223;51.006;7.610;2023-08-21T10:32:51;34.00;99.90
37340;DHT22;23223;51.006;7.610;2023-08-21T10:35:22;34.50;99.90
37340;DHT22;23223;51.006;7.610;2023-08-21T10:38:14;34.90;99.90
37340;DHT22;23223;51.006;7.610;2023-08-21T10:41:05;35.20;99.90
37340;DHT22;23223;51.006;7.610;2023-08-21T10:43:44;35.80;99.50
37340;DHT22;23223;51.006;7.610;2023-08-21T10:46:10;35.80;98.70
37340;DHT22;23223;51.006;7.610;2023-08-21T10:48:37;36.30;98.10
37340;DHT22;23223;51.006;7.610;2023-08-21T10:51:04;36.70;98.80
37340;DHT22;23223;51.006;7.610;2023-08-21T10:53:34;37.10;96.90
37340;DHT22;23223;51.006;7.610;2023-08-21T10:56:04;37.20;98.00
37340;DHT22;23223;51.006;7.610;2023-08-21T10:58:41;37.60;95.90
37340;DHT22;23223;51.006;7.610;2023-08-21T11:01:07;37.20;94.50
37340;DHT22;23223;51.006;7.610;2023-08-21T11:03:33;36.70;94.80
37340;DHT22;23223;51.006;7.610;2023-08-21T11:06:07;36.20;97.00
37340;DHT22;23223;51.006;7.610;2023-08-21T11:08:33;35.60;96.10
37340;DHT22;23223;51.006;7.610;2023-08-21T11:11:01;35.20;99.40
37340;DHT22;23223;51.006;7.610;2023-08-21T11:13:27;35.40;96.50
37340;DHT22;23223;51.006;7.610;2023-08-21T11:16:03;36.30;96.30
37340;DHT22;23223;51.006;7.610;2023-08-21T11:18:33;36.60;94.50
37340;DHT22;23223;51.006;7.610;2023-08-21T11:21:07;36.90;94.00
37340;DHT22;23223;51.006;7.610;2023-08-21T11:23:35;36.50;93.80
37340;DHT22;23223;51.006;7.610;2023-08-21T11:26:01;35.80;94.80
37340;DHT22;23223;51.006;7.610;2023-08-21T11:28:29;35.60;97.20
37340;DHT22;23223;51.006;7.610;2023-08-21T11:30:56;36.00;96.70
37340;DHT22;23223;51.006;7.610;2023-08-21T11:33:21;36.40;96.30
37340;DHT22;23223;51.006;7.610;2023-08-21T11:35:47;36.50;94.40
37340;DHT22;23223;51.006;7.610;2023-08-21T11:38:23;36.00;95.50
37340;DHT22;23223;51.006;7.610;2023-08-21T11:40:57;35.60;95.90
37340;DHT22;23223;51.006;7.610;2023-08-21T11:46:01;36.30;95.30
37340;DHT22;23223;51.006;7.610;2023-08-21T11:48:27;36.20;96.00
37340;DHT22;23223;51.006;7.610;2023-08-21T11:50:53;36.50;95.00
37340;DHT22;23223;51.006;7.610;2023-08-21T11:53:39;36.70;93.40
37340;DHT22;23223;51.006;7.610;2023-08-21T11:56:13;36.50;94.10
37340;DHT22;23223;51.006;7.610;2023-08-21T11:58:43;36.10;94.00
37340;DHT22;23223;51.006;7.610;2023-08-21T12:01:10;35.90;95.30
37340;DHT22;23223;51.006;7.610;2023-08-21T12:03:39;35.60;94.20
37340;DHT22;23223;51.006;7.610;2023-08-21T12:06:09;35.10;93.50
37340;DHT22;23223;51.006;7.610;2023-08-21T12:08:35;34.30;94.20
37340;DHT22;23223;51.006;7.610;2023-08-21T12:11:01;33.70;95.70
37340;DHT22;23223;51.006;7.610;2023-08-21T12:13:27;33.40;98.20
37340;DHT22;23223;51.006;7.610;2023-08-21T12:15:53;33.10;96.00
37340;DHT22;23223;51.006;7.610;2023-08-21T12:18:18;33.00;96.40
37340;DHT22;23223;51.006;7.610;2023-08-21T12:20:44;33.00;95.50
37340;DHT22;23223;51.006;7.610;2023-08-21T12:23:09;33.40;96.30
37340;DHT22;23223;51.006;7.610;2023-08-21T12:25:35;33.50;98.10
37340;DHT22;23223;51.006;7.610;2023-08-21T12:28:00;33.50;96.80
37340;DHT22;23223;51.006;7.610;2023-08-21T12:30:26;34.00;98.20
37340;DHT22;23223;51.006;7.610;2023-08-21T12:32:52;34.10;97.60
37340;DHT22;23223;51.006;7.610;2023-08-21T12:35:17;34.00;97.50
37340;DHT22;23223;51.006;7.610;2023-08-21T12:37:43;34.10;93.50
37340;DHT22;23223;51.006;7.610;2023-08-21T12:40:09;34.30;94.80
37340;DHT22;23223;51.006;7.610;2023-08-21T12:42:34;34.70;93.60
37340;DHT22;23223;51.006;7.610;2023-08-21T12:45:00;35.30;94.00
37340;DHT22;23223;51.006;7.610;2023-08-21T12:47:25;36.00;92.10
37340;DHT22;23223;51.006;7.610;2023-08-21T12:49:51;36.30;91.80
37340;DHT22;23223;51.006;7.610;2023-08-21T12:52:17;36.60;91.50
37340;DHT22;23223;51.006;7.610;2023-08-21T12:54:42;36.60;90.40
37340;DHT22;23223;51.006;7.610;2023-08-21T12:57:09;36.90;90.70
37340;DHT22;23223;51.006;7.610;2023-08-21T12:59:36;36.70;90.00
37340;DHT22;23223;51.006;7.610;2023-08-21T13:02:02;36.70;90.20
37340;DHT22;23223;51.006;7.610;2023-08-21T13:04:29;36.60;89.00
37340;DHT22;23223;51.006;7.610;2023-08-21T13:06:54;37.00;85.60
37340;DHT22;23223;51.006;7.610;2023-08-21T13:09:20;37.10;86.20
37340;DHT22;23223;51.006;7.610;2023-08-21T13:11:45;37.20;87.10
37340;DHT22;23223;51.006;7.610;2023-08-21T13:14:11;36.60;85.30
37340;DHT22;23223;51.006;7.610;2023-08-21T13:16:37;36.30;84.00
37340;DHT22;23223;51.006;7.610;2023-08-21T13:19:02;36.20;84.80
37340;DHT22;23223;51.006;7.610;2023-08-21T13:21:28;36.50;86.00
37340;DHT22;23223;51.006;7.610;2023-08-21T13:23:53;36.40;81.90
37340;DHT22;23223;51.006;7.610;2023-08-21T13:26:19;36.40;81.60
37340;DHT22;23223;51.006;7.610;2023-08-21T13:28:45;36.50;80.50
37340;DHT22;23223;51.006;7.610;2023-08-21T13:31:10;36.90;80.20
37340;DHT22;23223;51.006;7.610;2023-08-21T13:33:47;36.80;80.50
37340;DHT22;23223;51.006;7.610;2023-08-21T13:36:13;36.80;82.20
37340;DHT22;23223;51.006;7.610;2023-08-21T13:38:39;37.20;80.70
37340;DHT22;23223;51.006;7.610;2023-08-21T13:41:05;37.40;79.00
37340;DHT22;23223;51.006;7.610;2023-08-21T13:43:30;37.60;78.30
37340;DHT22;23223;51.006;7.610;2023-08-21T13:45:56;37.80;76.90
37340;DHT22;23223;51.006;7.610;2023-08-21T13:48:22;37.70;79.10
37340;DHT22;23223;51.006;7.610;2023-08-21T13:50:47;37.60;80.20
37340;DHT22;23223;51.006;7.610;2023-08-21T13:53:13;37.70;77.40
37340;DHT22;23223;51.006;7.610;2023-08-21T13:55:38;37.90;80.60
37340;DHT22;23223;51.006;7.610;2023-08-21T13:58:04;38.20;75.60
37340;DHT22;23223;51.006;7.610;2023-08-21T14:00:29;37.90;77.00
37340;DHT22;23223;51.006;7.610;2023-08-21T14:02:55;37.70;78.60
37340;DHT22;23223;51.006;7.610;2023-08-21T14:05:21;36.60;77.10
37340;DHT22;23223;51.006;7.610;2023-08-21T14:07:46;36.20;80.10
37340;DHT22;23223;51.006;7.610;2023-08-21T14:10:12;35.50;83.40
37340;DHT22;23223;51.006;7.610;2023-08-21T14:12:39;35.10;83.10
37340;DHT22;23223;51.006;7.610;2023-08-21T14:15:05;34.80;83.70
37340;DHT22;23223;51.006;7.610;2023-08-21T14:17:31;34.80;84.00
37340;DHT22;23223;51.006;7.610;2023-08-21T14:19:57;34.70;82.30
37340;DHT22;23223;51.006;7.610;2023-08-21T14:22:23;34.60;85.60
37340;DHT22;23223;51.006;7.610;2023-08-21T14:24:48;34.10;84.20
37340;DHT22;23223;51.006;7.610;2023-08-21T14:27:14;33.80;83.90
37340;DHT22;23223;51.006;7.610;2023-08-21T14:29:41;34.00;89.90
37340;DHT22;23223;51.006;7.610;2023-08-21T14:32:07;34.50;84.50
37340;DHT22;23223;51.006;7.610;2023-08-21T14:34:33;34.90;82.10
37340;DHT22;23223;51.006;7.610;2023-08-21T14:36:59;34.90;82.20
37340;DHT22;23223;51.006;7.610;2023-08-21T14:39:25;35.00;81.70
37340;DHT22;23223;51.006;7.610;2023-08-21T14:41:55;35.10;83.80
37340;DHT22;23223;51.006;7.610;2023-08-21T14:44:22;35.10;79.20
37340;DHT22;23223;51.006;7.610;2023-08-21T14:46:47;34.60;79.80
37340;DHT22;23223;51.006;7.610;2023-08-21T14:49:13;34.40;80.80
37340;DHT22;23223;51.006;7.610;2023-08-21T14:51:39;34.50;81.20
37340;DHT22;23223;51.006;7.610;2023-08-21T14:54:05;34.60;80.90
37340;DHT22;23223;51.006;7.610;2023-08-21T14:56:30;34.60;81.00
37340;DHT22;23223;51.006;7.610;2023-08-21T14:58:56;34.20;81.90
37340;DHT22;23223;51.006;7.610;2023-08-21T15:01:22;34.00;83.80
37340;DHT22;23223;51.006;7.610;2023-08-21T15:03:47;33.50;86.20
37340;DHT22;23223;51.006;7.610;2023-08-21T15:06:13;33.60;87.30
37340;DHT22;23223;51.006;7.610;2023-08-21T15:08:39;33.50;90.50
37340;DHT22;23223;51.006;7.610;2023-08-21T15:11:08;33.50;90.60
37340;DHT22;23223;51.006;7.610;2023-08-21T15:13:37;33.00;91.50
37340;DHT22;23223;51.006;7.610;2023-08-21T15:16:03;32.80;90.50
37340;DHT22;23223;51.006;7.610;2023-08-21T15:18:29;32.80;90.90
37340;DHT22;23223;51.006;7.610;2023-08-21T15:20:54;32.50;91.10
37340;DHT22;23223;51.006;7.610;2023-08-21T15:23:20;32.20;93.60
37340;DHT22;23223;51.006;7.610;2023-08-21T15:25:45;31.90;91.50
37340;DHT22;23223;51.006;7.610;2023-08-21T15:28:11;31.60;91.80
37340;DHT22;23223;51.006;7.610;2023-08-21T15:30:36;31.60;92.70